createdAt,value
2019-02-28T00:00:40.803Z,23.60
2019-02-28T00:03:09.506Z,22.17
2019-02-28T00:05:39.053Z,27.10
2019-02-28T00:08:07.911Z,26.50
2019-02-28T00:10:36.446Z,31.30
2019-02-28T00:13:04.948Z,24.03
2019-02-28T00:15:33.347Z,27.93
2019-02-28T00:18:03.594Z,36.13
2019-02-28T00:20:32.658Z,23.00
2019-02-28T00:23:01.156Z,29.20
2019-02-28T00:25:29.560Z,26.07
2019-02-28T00:27:58.707Z,25.13
2019-02-28T00:30:27.250Z,28.97
2019-02-28T00:32:56.438Z,33.67
2019-02-28T00:35:25.883Z,26.90
2019-02-28T00:37:56.641Z,28.67
2019-02-28T00:40:24.504Z,26.60
2019-02-28T00:42:53.383Z,44.38
2019-02-28T00:45:21.823Z,33.17
2019-02-28T00:47:50.245Z,34.70
2019-02-28T00:50:18.675Z,35.30
2019-02-28T00:52:47.142Z,28.37
2019-02-28T00:55:15.688Z,26.50
2019-02-28T00:57:44.196Z,40.30
2019-02-28T01:00:15.787Z,37.17
2019-02-28T01:02:44.295Z,31.47
2019-02-28T01:05:12.776Z,30.40
2019-02-28T01:07:41.293Z,36.20
2019-02-28T01:10:11.680Z,44.10
2019-02-28T01:12:40.281Z,32.00
2019-02-28T01:15:15.618Z,39.87
2019-02-28T01:17:44.261Z,35.70
2019-02-28T01:20:16.229Z,35.37
2019-02-28T01:22:43.273Z,35.60
2019-02-28T01:25:14.073Z,45.33
2019-02-28T01:27:42.510Z,32.43
2019-02-28T01:30:13.093Z,36.77
2019-02-28T01:32:41.637Z,34.80
2019-02-28T01:35:10.227Z,35.50
2019-02-28T01:37:38.671Z,38.70
2019-02-28T01:40:09.455Z,29.37
2019-02-28T01:42:37.861Z,40.47
2019-02-28T01:45:10.049Z,32.77
2019-02-28T01:47:39.012Z,38.53
2019-02-28T01:50:10.079Z,41.15
2019-02-28T01:52:44.323Z,35.68
2019-02-28T01:55:10.395Z,37.00
2019-02-28T01:57:42.359Z,41.77
2019-02-28T02:00:14.441Z,34.23
2019-02-28T02:02:42.856Z,33.40
2019-02-28T02:05:11.476Z,40.07
2019-02-28T02:07:39.986Z,43.00
2019-02-28T02:10:17.536Z,44.73
2019-02-28T02:12:46.406Z,43.40
2019-02-28T02:15:16.881Z,43.07
2019-02-28T02:17:44.988Z,34.03
2019-02-28T02:20:17.124Z,40.30
2019-02-28T02:22:45.698Z,45.23
2019-02-28T02:25:14.596Z,42.60
2019-02-28T02:27:43.061Z,37.60
2019-02-28T02:30:15.998Z,52.10
2019-02-28T02:32:44.745Z,59.40
2019-02-28T02:35:14.308Z,43.57
2019-02-28T02:37:42.741Z,44.20
2019-02-28T02:40:15.680Z,41.20
2019-02-28T02:42:48.405Z,38.43
2019-02-28T02:45:15.227Z,42.57
2019-02-28T02:47:43.773Z,42.87
2019-02-28T02:50:13.740Z,47.20
2019-02-28T02:52:42.496Z,45.23
2019-02-28T02:55:11.157Z,44.33
2019-02-28T02:57:39.657Z,51.23
2019-02-28T03:00:16.675Z,41.07
2019-02-28T03:02:45.362Z,61.93
2019-02-28T03:05:14.221Z,61.60
2019-02-28T03:07:42.830Z,41.57
2019-02-28T03:10:19.719Z,46.13
2019-02-28T03:12:48.542Z,43.37
2019-02-28T03:15:24.954Z,49.30
2019-02-28T03:17:49.061Z,46.27
2019-02-28T03:20:17.726Z,48.53
2019-02-28T03:22:46.315Z,57.50
2019-02-28T03:25:15.799Z,60.93
2019-02-28T03:27:44.381Z,51.10
2019-02-28T03:30:25.768Z,41.53
2019-02-28T03:32:45.971Z,44.50
2019-02-28T03:35:14.449Z,44.30
2019-02-28T03:37:42.925Z,40.80
2019-02-28T03:40:12.508Z,46.60
2019-02-28T03:42:40.938Z,37.90
2019-02-28T03:45:11.123Z,37.30
2019-02-28T03:47:39.549Z,41.80
2019-02-28T03:50:09.505Z,45.63
2019-02-28T03:52:42.306Z,37.37
2019-02-28T03:55:10.720Z,42.70
2019-02-28T03:57:39.209Z,40.30
2019-02-28T04:00:21.693Z,34.97
2019-02-28T04:02:56.952Z,46.50
2019-02-28T04:05:26.494Z,49.90
2019-02-28T04:07:53.657Z,44.17
2019-02-28T04:10:22.410Z,50.37
2019-02-28T04:12:50.912Z,44.17
2019-02-28T04:15:20.192Z,42.80
2019-02-28T04:17:48.720Z,45.27
2019-02-28T04:20:17.134Z,49.00
2019-02-28T04:22:45.558Z,66.57
2019-02-28T04:25:14.050Z,51.67
2019-02-28T04:27:42.493Z,45.63
2019-02-28T04:30:14.881Z,49.80
2019-02-28T04:32:43.325Z,49.07
2019-02-28T04:35:12.088Z,45.03
2019-02-28T04:37:44.984Z,43.80
2019-02-28T04:40:12.192Z,43.93
2019-02-28T04:42:40.606Z,70.50
2019-02-28T04:45:12.040Z,49.97
2019-02-28T04:47:41.450Z,45.80
2019-02-28T04:50:11.534Z,40.97
2019-02-28T04:52:40.029Z,48.00
2019-02-28T04:55:09.752Z,46.60
2019-02-28T04:57:38.232Z,53.10
2019-02-28T05:00:09.746Z,48.93
2019-02-28T05:02:38.655Z,48.03
2019-02-28T05:05:12.183Z,52.27
2019-02-28T05:07:37.980Z,51.47
2019-02-28T05:10:08.262Z,51.43
2019-02-28T05:12:39.914Z,55.50
2019-02-28T05:15:11.881Z,46.00
2019-02-28T05:17:40.342Z,48.03
2019-02-28T05:20:11.043Z,48.30
2019-02-28T05:22:40.627Z,54.80
2019-02-28T05:25:10.205Z,46.70
2019-02-28T05:27:38.662Z,53.73
2019-02-28T05:30:19.446Z,44.30
2019-02-28T05:32:47.116Z,47.87
2019-02-28T05:35:15.605Z,51.37
2019-02-28T05:37:48.191Z,53.03
2019-02-28T05:40:17.192Z,65.40
2019-02-28T05:42:45.643Z,52.67
2019-02-28T05:45:15.811Z,46.77
2019-02-28T05:47:46.711Z,46.60
2019-02-28T05:50:16.715Z,61.93
2019-02-28T05:52:44.946Z,54.37
2019-02-28T05:55:15.008Z,57.20
2019-02-28T05:57:44.807Z,61.30
2019-02-28T06:00:17.010Z,53.67
2019-02-28T06:02:45.478Z,64.13
2019-02-28T06:05:14.063Z,85.23
2019-02-28T06:07:42.607Z,59.00
2019-02-28T06:10:13.444Z,53.83
2019-02-28T06:12:43.715Z,59.60
2019-02-28T06:15:16.202Z,54.27
2019-02-28T06:17:44.613Z,57.47
2019-02-28T06:20:16.259Z,59.07
2019-02-28T06:22:43.936Z,55.23
2019-02-28T06:25:22.655Z,56.80
2019-02-28T06:27:48.918Z,42.93
2019-02-28T06:30:18.911Z,56.90
2019-02-28T06:32:49.973Z,53.67
2019-02-28T06:35:20.349Z,58.40
2019-02-28T06:37:48.555Z,52.23
2019-02-28T06:40:17.823Z,59.77
2019-02-28T06:42:51.863Z,62.67
2019-02-28T06:45:22.399Z,64.37
2019-02-28T06:47:51.082Z,51.03
2019-02-28T06:50:20.112Z,51.07
2019-02-28T06:52:51.384Z,57.97
2019-02-28T06:55:27.402Z,63.37
2019-02-28T06:57:59.119Z,69.80
2019-02-28T07:00:28.274Z,63.37
2019-02-28T07:02:56.704Z,65.73
2019-02-28T07:05:28.293Z,78.53
2019-02-28T07:07:59.002Z,67.27
2019-02-28T07:10:27.795Z,70.00
2019-02-28T07:12:56.288Z,61.70
2019-02-28T07:15:29.194Z,62.57
2019-02-28T07:18:02.356Z,69.23
2019-02-28T07:20:31.034Z,64.77
2019-02-28T07:22:59.823Z,61.33
2019-02-28T07:25:29.872Z,67.67
2019-02-28T07:28:02.434Z,67.63
2019-02-28T07:30:30.065Z,66.02
2019-02-28T07:32:58.505Z,71.17
2019-02-28T07:35:34.044Z,70.07
2019-02-28T07:38:04.115Z,66.80
2019-02-28T07:40:33.864Z,58.97
2019-02-28T07:43:02.357Z,67.40
2019-02-28T07:45:33.159Z,66.57
2019-02-28T07:48:06.544Z,60.47
2019-02-28T07:50:37.304Z,70.27
2019-02-28T07:53:08.740Z,80.72
2019-02-28T07:55:36.082Z,64.63
2019-02-28T07:58:06.240Z,73.28
2019-02-28T08:00:37.472Z,65.53
2019-02-28T08:03:05.848Z,74.97
2019-02-28T08:05:34.946Z,80.63
2019-02-28T08:08:07.852Z,62.57
2019-02-28T08:10:40.774Z,69.43
2019-02-28T08:13:09.244Z,73.10
2019-02-28T08:15:37.677Z,65.23
2019-02-28T08:18:09.596Z,78.80
2019-02-28T08:20:40.279Z,67.20
2019-02-28T08:23:09.098Z,71.23
2019-02-28T08:25:39.680Z,65.50
2019-02-28T08:28:09.206Z,85.67
2019-02-28T08:30:38.313Z,64.03
2019-02-28T08:33:07.109Z,70.13
2019-02-28T08:35:36.838Z,67.30
2019-02-28T08:38:07.334Z,68.70
2019-02-28T08:40:35.905Z,65.77
2019-02-28T08:43:04.645Z,62.10
2019-02-28T08:45:37.605Z,56.57
2019-02-28T08:48:12.806Z,59.60
2019-02-28T08:50:44.989Z,66.23
2019-02-28T08:53:16.354Z,60.00
2019-02-28T08:55:44.385Z,57.73
2019-02-28T08:58:13.801Z,62.93
2019-02-28T09:00:47.262Z,64.92
2019-02-28T09:03:19.918Z,62.60
2019-02-28T09:05:50.545Z,66.40
2019-02-28T09:08:18.569Z,68.23
2019-02-28T09:10:49.861Z,61.27
2019-02-28T09:13:20.774Z,67.33
2019-02-28T09:15:50.686Z,62.83
2019-02-28T09:18:19.354Z,62.30
2019-02-28T09:20:49.362Z,63.07
2019-02-28T09:23:23.473Z,70.50
2019-02-28T09:25:56.605Z,70.97
2019-02-28T09:28:24.020Z,73.00
2019-02-28T09:30:55.103Z,69.63
2019-02-28T09:33:24.293Z,65.43
2019-02-28T09:35:55.995Z,74.30
2019-02-28T09:38:24.706Z,68.80
2019-02-28T09:40:53.318Z,67.77
2019-02-28T09:43:24.864Z,65.90
2019-02-28T09:45:56.117Z,65.17
2019-02-28T09:48:24.595Z,63.33
2019-02-28T09:50:57.923Z,75.10
2019-02-28T09:53:25.124Z,79.17
2019-02-28T09:55:54.516Z,78.57
2019-02-28T09:58:22.999Z,66.20
2019-02-28T10:00:52.445Z,71.13
2019-02-28T10:03:24.384Z,73.37
2019-02-28T10:05:53.509Z,76.90
2019-02-28T10:08:22.009Z,80.00
2019-02-28T10:10:55.800Z,77.50
2019-02-28T10:13:27.962Z,77.95
2019-02-28T10:16:00.546Z,70.33
2019-02-28T10:18:28.988Z,74.03
2019-02-28T10:20:59.029Z,84.97
2019-02-28T10:23:28.515Z,73.27
2019-02-28T10:26:00.338Z,79.03
2019-02-28T10:28:31.942Z,78.07
2019-02-28T10:31:00.211Z,78.13
2019-02-28T10:33:29.876Z,65.30
2019-02-28T10:36:03.867Z,70.23
2019-02-28T10:38:34.436Z,86.47
2019-02-28T10:41:03.040Z,76.27
2019-02-28T10:43:31.514Z,69.43
2019-02-28T10:46:05.476Z,71.72
2019-02-28T10:48:50.221Z,89.77
2019-02-28T10:51:14.169Z,66.10
2019-02-28T10:53:45.543Z,69.97
2019-02-28T10:56:14.192Z,62.83
2019-02-28T10:58:42.660Z,73.60
2019-02-28T11:01:13.953Z,66.63
2019-02-28T11:03:43.322Z,61.73
2019-02-28T11:06:12.037Z,70.60
2019-02-28T11:08:44.410Z,75.27
2019-02-28T11:11:15.532Z,57.93
2019-02-28T11:13:47.278Z,56.33
2019-02-28T11:16:16.218Z,70.40
2019-02-28T11:18:44.792Z,54.80
2019-02-28T11:21:15.024Z,57.93
2019-02-28T11:23:55.118Z,59.80
2019-02-28T11:26:24.024Z,47.90
2019-02-28T11:28:57.170Z,53.00
2019-02-28T11:31:26.889Z,57.50
2019-02-28T11:33:55.687Z,53.33
2019-02-28T11:36:24.925Z,59.48
2019-02-28T11:38:55.447Z,65.72
2019-02-28T11:41:24.993Z,68.60
2019-02-28T11:43:53.404Z,65.67
2019-02-28T11:46:25.494Z,62.17
2019-02-28T11:48:59.720Z,52.57
2019-02-28T11:51:32.851Z,56.73
2019-02-28T11:54:02.520Z,68.17
2019-02-28T11:56:31.426Z,61.03
2019-02-28T11:59:00.812Z,70.37
2019-02-28T12:01:31.150Z,62.63
2019-02-28T12:03:59.622Z,64.40
2019-02-28T12:06:31.055Z,62.77
2019-02-28T12:09:00.896Z,63.30
2019-02-28T12:11:36.571Z,59.10
2019-02-28T12:14:06.547Z,64.37
2019-02-28T12:16:35.388Z,72.53
2019-02-28T12:19:04.156Z,66.33
2019-02-28T12:21:37.986Z,77.87
2019-02-28T12:24:10.014Z,83.07
2019-02-28T12:26:38.691Z,66.60
2019-02-28T12:29:09.503Z,66.07
2019-02-28T12:31:38.817Z,70.77
2019-02-28T12:34:11.365Z,69.63
2019-02-28T12:36:50.285Z,82.33
2019-02-28T12:39:19.703Z,78.37
2019-02-28T12:41:52.773Z,78.17
2019-02-28T12:44:18.987Z,70.53
2019-02-28T12:46:47.805Z,85.27
2019-02-28T12:49:22.353Z,90.10
2019-02-28T12:51:57.391Z,99.03
2019-02-28T12:54:30.357Z,82.03
2019-02-28T12:57:02.620Z,102.92
2019-02-28T12:59:35.652Z,106.13
2019-02-28T13:02:07.332Z,107.43
2019-02-28T13:04:35.798Z,125.80
2019-02-28T13:07:06.353Z,110.60
2019-02-28T13:09:38.799Z,93.70
2019-02-28T13:12:11.984Z,101.53
2019-02-28T13:14:40.739Z,98.33
2019-02-28T13:17:09.830Z,85.30
2019-02-28T13:19:39.856Z,91.07
2019-02-28T13:22:12.272Z,88.60
2019-02-28T13:24:42.493Z,101.30
2019-02-28T13:27:12.099Z,77.10
2019-02-28T13:29:40.925Z,80.30
2019-02-28T13:32:11.002Z,84.83
2019-02-28T13:34:39.836Z,71.50
2019-02-28T13:37:08.283Z,73.00
2019-02-28T13:39:42.069Z,75.50
2019-02-28T13:42:13.870Z,67.47
2019-02-28T13:44:43.343Z,69.43
2019-02-28T13:47:12.054Z,66.13
2019-02-28T13:49:41.420Z,71.57
2019-02-28T13:52:18.884Z,59.43
2019-02-28T13:54:43.265Z,60.27
2019-02-28T13:57:12.024Z,66.73
2019-02-28T13:59:43.645Z,61.57
2019-02-28T14:02:15.022Z,59.38
2019-02-28T14:04:43.490Z,61.27
2019-02-28T14:07:12.008Z,57.53
2019-02-28T14:09:43.031Z,55.30
2019-02-28T14:12:17.037Z,65.17
2019-02-28T14:14:50.397Z,58.30
2019-02-28T14:17:20.036Z,54.20
2019-02-28T14:19:48.894Z,64.33
2019-02-28T14:22:17.862Z,49.57
2019-02-28T14:24:50.862Z,57.73
2019-02-28T14:27:21.656Z,54.20
2019-02-28T14:29:49.493Z,44.13
2019-02-28T14:32:20.519Z,43.67
2019-02-28T14:34:51.705Z,45.43
2019-02-28T14:37:20.512Z,34.90
2019-02-28T14:39:49.121Z,37.10
2019-02-28T14:42:18.927Z,38.33
2019-02-28T14:44:47.650Z,39.70
2019-02-28T14:47:16.496Z,35.77
2019-02-28T14:49:47.113Z,32.77
2019-02-28T14:52:17.500Z,28.10
2019-02-28T14:54:46.320Z,24.33
2019-02-28T14:57:16.625Z,20.77
2019-02-28T14:59:47.813Z,28.45
2019-02-28T15:02:17.415Z,24.37
2019-02-28T15:04:47.888Z,18.75
2019-02-28T15:07:16.428Z,26.80
2019-02-28T15:09:48.895Z,21.80
2019-02-28T15:12:20.347Z,23.07
2019-02-28T15:14:55.026Z,25.90
2019-02-28T15:17:20.383Z,25.33
2019-02-28T15:19:50.637Z,27.37
2019-02-28T15:22:22.326Z,27.50
2019-02-28T15:24:50.740Z,24.57
2019-02-28T15:27:19.212Z,25.53
2019-02-28T15:29:49.370Z,24.60
2019-02-28T15:32:18.063Z,21.73
2019-02-28T15:34:46.892Z,24.77
2019-02-28T15:37:16.723Z,22.30
2019-02-28T15:39:49.836Z,20.67
2019-02-28T15:42:16.923Z,15.73
2019-02-28T15:44:45.509Z,26.13
2019-02-28T15:47:19.496Z,26.00
2019-02-28T15:49:51.676Z,31.60
2019-02-28T15:52:19.323Z,26.50
2019-02-28T15:54:49.417Z,23.93
2019-02-28T15:57:21.229Z,17.42
2019-02-28T15:59:52.071Z,20.02
2019-02-28T16:02:21.950Z,27.37
2019-02-28T16:04:50.370Z,16.30
2019-02-28T16:07:19.686Z,15.63
2019-02-28T16:09:50.958Z,16.80
2019-02-28T16:12:19.496Z,20.10
2019-02-28T16:14:48.066Z,22.50
2019-02-28T16:17:21.172Z,14.40
2019-02-28T16:19:53.212Z,10.10
2019-02-28T16:22:20.795Z,16.90
2019-02-28T16:24:49.261Z,16.70
2019-02-28T16:27:17.774Z,12.80
2019-02-28T16:29:46.318Z,17.67
2019-02-28T16:32:15.456Z,22.30
2019-02-28T16:34:43.995Z,11.23
2019-02-28T16:37:12.484Z,21.87
2019-02-28T16:39:40.936Z,15.70
2019-02-28T16:42:11.550Z,13.57
2019-02-28T16:44:39.847Z,13.63
2019-02-28T16:47:08.312Z,15.63
2019-02-28T16:49:36.840Z,17.43
2019-02-28T16:52:06.041Z,17.17
2019-02-28T16:54:35.390Z,15.87
2019-02-28T16:57:04.042Z,21.97
2019-02-28T16:59:32.991Z,17.13
2019-02-28T17:02:02.169Z,25.23
2019-02-28T17:04:30.881Z,26.73
2019-02-28T17:06:59.332Z,24.80
2019-02-28T17:09:30.225Z,13.30
2019-02-28T17:12:01.268Z,19.77
2019-02-28T17:14:30.558Z,23.37
2019-02-28T17:17:00.652Z,26.37
2019-02-28T17:19:31.713Z,18.07
2019-02-28T17:21:59.257Z,19.83
2019-02-28T17:24:27.782Z,18.10
2019-02-28T17:27:02.381Z,26.03
2019-02-28T17:29:35.344Z,19.93
2019-02-28T17:32:04.604Z,22.10
2019-02-28T17:34:33.014Z,20.90
2019-02-28T17:37:01.611Z,22.73
2019-02-28T17:39:30.056Z,24.57
2019-02-28T17:41:58.507Z,18.67
2019-02-28T17:44:29.999Z,28.50
2019-02-28T17:47:10.245Z,15.97
2019-02-28T17:50:05.403Z,20.65
2019-02-28T17:52:34.877Z,17.67
2019-02-28T17:55:09.348Z,15.60
2019-02-28T17:57:48.815Z,16.87
2019-02-28T18:00:42.096Z,21.00
2019-02-28T18:03:25.205Z,17.53
2019-02-28T18:06:05.405Z,21.20
2019-02-28T18:08:45.549Z,15.90
2019-02-28T18:11:25.666Z,19.27
2019-02-28T18:13:59.837Z,14.67
2019-02-28T18:16:47.208Z,17.13
2019-02-28T18:19:21.687Z,19.13
2019-02-28T18:22:09.586Z,19.10
2019-02-28T18:24:57.520Z,30.27
2019-02-28T18:27:34.602Z,16.97
2019-02-28T18:30:30.149Z,26.60
2019-02-28T18:32:58.681Z,23.77
2019-02-28T18:35:29.195Z,17.10
2019-02-28T18:38:00.760Z,23.90
2019-02-28T18:40:27.799Z,14.23
2019-02-28T18:42:56.218Z,30.67
2019-02-28T18:45:24.670Z,36.17
2019-02-28T18:47:53.204Z,25.57
2019-02-28T18:50:21.754Z,23.60
2019-02-28T18:52:50.291Z,13.20
2019-02-28T18:55:19.445Z,18.75
2019-02-28T18:57:47.918Z,17.50
2019-02-28T19:00:18.652Z,22.93
2019-02-28T19:02:47.106Z,28.77
2019-02-28T19:05:15.622Z,20.53
2019-02-28T19:07:44.072Z,14.30
2019-02-28T19:10:12.724Z,20.00
2019-02-28T19:12:41.210Z,47.90
2019-02-28T19:15:14.823Z,25.07
2019-02-28T19:17:43.263Z,19.17
2019-02-28T19:20:12.073Z,21.80
2019-02-28T19:22:40.571Z,17.87
2019-02-28T19:25:11.332Z,17.87
2019-02-28T19:27:39.739Z,22.23
2019-02-28T19:30:11.449Z,23.60
2019-02-28T19:32:39.887Z,22.87
2019-02-28T19:35:08.464Z,21.13
2019-02-28T19:37:37.002Z,18.83
2019-02-28T19:40:08.522Z,17.10
2019-02-28T19:42:36.986Z,21.33
2019-02-28T19:45:17.241Z,23.67
2019-02-28T19:47:47.470Z,24.43
2019-02-28T19:50:15.822Z,28.27
2019-02-28T19:52:44.247Z,21.17
2019-02-28T19:55:14.344Z,20.43
2019-02-28T19:57:42.976Z,22.90
2019-02-28T20:00:14.745Z,25.63
2019-02-28T20:02:43.246Z,30.00
2019-02-28T20:05:12.458Z,18.53
2019-02-28T20:07:40.944Z,17.73
2019-02-28T20:10:12.512Z,21.07
2019-02-28T20:12:41.023Z,27.10
2019-02-28T20:15:12.455Z,25.47
2019-02-28T20:17:40.960Z,29.83
2019-02-28T20:20:15.812Z,24.33
2019-02-28T20:22:44.312Z,30.77
2019-02-28T20:25:13.824Z,25.13
2019-02-28T20:27:42.337Z,26.07
2019-02-28T20:30:18.847Z,24.97
2019-02-28T20:32:47.338Z,22.93
2019-02-28T20:35:25.866Z,24.00
2019-02-28T20:37:46.983Z,22.00
2019-02-28T20:40:24.324Z,21.63
2019-02-28T20:42:52.908Z,26.93
2019-02-28T20:45:21.436Z,18.17
2019-02-28T20:47:49.904Z,29.17
2019-02-28T20:50:37.774Z,19.23
2019-02-28T20:53:06.260Z,17.30
2019-02-28T20:55:34.803Z,21.83
2019-02-28T20:58:03.300Z,25.17
2019-02-28T21:00:31.893Z,26.23
2019-02-28T21:03:00.336Z,34.23
2019-02-28T21:05:28.845Z,23.00
2019-02-28T21:07:57.281Z,25.43
2019-02-28T21:10:25.688Z,25.20
2019-02-28T21:12:54.129Z,28.40
2019-02-28T21:15:24.691Z,36.40
2019-02-28T21:17:52.956Z,18.53
2019-02-28T21:20:21.398Z,24.37
2019-02-28T21:22:50.224Z,20.07
2019-02-28T21:25:19.339Z,40.57
2019-02-28T21:27:48.036Z,28.23
2019-02-28T21:30:21.821Z,30.37
2019-02-28T21:32:50.770Z,21.00
2019-02-28T21:35:19.888Z,29.10
2019-02-28T21:37:51.928Z,27.70
2019-02-28T21:40:21.699Z,22.30
2019-02-28T21:42:50.455Z,29.17
2019-02-28T21:45:20.888Z,19.83
2019-02-28T21:47:49.596Z,29.40
2019-02-28T21:50:18.674Z,27.90
2019-02-28T21:52:47.388Z,26.20
2019-02-28T21:55:17.782Z,25.67
2019-02-28T21:57:46.494Z,26.50
2019-02-28T22:00:20.834Z,32.73
2019-02-28T22:02:49.704Z,21.70
2019-02-28T22:05:18.291Z,35.20
2019-02-28T22:07:47.066Z,34.90
2019-02-28T22:10:16.732Z,25.40
2019-02-28T22:12:45.984Z,30.97
2019-02-28T22:15:19.547Z,21.80
2019-02-28T22:17:48.220Z,31.63
2019-02-28T22:20:17.113Z,37.90
2019-02-28T22:22:45.802Z,25.27
2019-02-28T22:25:15.700Z,33.40
2019-02-28T22:27:44.586Z,18.83
2019-02-28T22:30:34.484Z,20.13
2019-02-28T22:33:19.609Z,21.17
2019-02-28T22:35:49.731Z,28.23
2019-02-28T22:38:18.187Z,21.33
2019-02-28T22:40:46.649Z,26.90
2019-02-28T22:43:15.081Z,16.97
2019-02-28T22:45:44.436Z,16.67
2019-02-28T22:48:12.893Z,22.67
2019-02-28T22:50:41.403Z,16.30
2019-02-28T22:53:09.837Z,19.80
2019-02-28T22:55:38.355Z,15.80
2019-02-28T22:58:11.328Z,13.83
2019-02-28T23:00:47.049Z,18.50
2019-02-28T23:03:15.586Z,7.73
2019-02-28T23:05:44.228Z,10.03
2019-02-28T23:08:12.675Z,7.10
2019-02-28T23:10:41.236Z,8.17
2019-02-28T23:13:09.664Z,8.93
2019-02-28T23:15:38.233Z,10.10
2019-02-28T23:18:06.663Z,8.27
2019-02-28T23:20:35.108Z,5.80
2019-02-28T23:23:03.590Z,5.53
2019-02-28T23:25:32.024Z,10.57
2019-02-28T23:28:11.791Z,6.30
2019-02-28T23:31:05.677Z,6.20
2019-02-28T23:33:34.080Z,8.23
2019-02-28T23:36:02.597Z,6.23
2019-02-28T23:38:31.073Z,8.10
2019-02-28T23:40:59.544Z,6.07
2019-02-28T23:43:27.985Z,6.20
2019-02-28T23:45:56.411Z,5.95
2019-02-28T23:48:24.855Z,16.77
2019-02-28T23:50:53.297Z,8.47
2019-02-28T23:53:21.753Z,18.23
2019-02-28T23:55:50.161Z,12.20
2019-02-28T23:58:18.638Z,9.13
